sensor_id;sensor_type;location;lat;lon;timestamp;temperature;humidity
326;DHT22;150;52.352;14.058;2024-01-27T00:00:20;5.10;33.30
326;DHT22;150;52.352;14.058;2024-01-27T00:02:47;5.10;33.50
326;DHT22;150;52.352;14.058;2024-01-27T00:05:14;5.10;32.80
326;DHT22;150;52.352;14.058;2024-01-27T00:07:41;5.00;32.70
326;DHT22;150;52.352;14.058;2024-01-27T00:10:08;4.90;32.80
326;DHT22;150;52.352;14.058;2024-01-27T00:12:35;5.00;32.90
326;DHT22;150;52.352;14.058;2024-01-27T00:15:02;4.90;33.00
326;DHT22;150;52.352;14.058;2024-01-27T00:17:29;4.80;33.40
326;DHT22;150;52.352;14.058;2024-01-27T00:19:55;4.80;33.30
326;DHT22;150;52.352;14.058;2024-01-27T00:22:22;4.80;34.00
326;DHT22;150;52.352;14.058;2024-01-27T00:24:50;4.80;33.90
326;DHT22;150;52.352;14.058;2024-01-27T00:27:16;4.90;33.60
326;DHT22;150;52.352;14.058;2024-01-27T00:29:43;4.80;32.90
326;DHT22;150;52.352;14.058;2024-01-27T00:32:09;4.80;33.20
326;DHT22;150;52.352;14.058;2024-01-27T00:34:36;4.80;33.10
326;DHT22;150;52.352;14.058;2024-01-27T00:37:03;4.80;33.00
326;DHT22;150;52.352;14.058;2024-01-27T00:39:31;4.80;32.80
326;DHT22;150;52.352;14.058;2024-01-27T00:41:59;4.80;32.80
326;DHT22;150;52.352;14.058;2024-01-27T00:44:26;4.80;33.10
326;DHT22;150;52.352;14.058;2024-01-27T00:46:52;4.80;33.10
326;DHT22;150;52.352;14.058;2024-01-27T00:49:19;4.90;32.80
326;DHT22;150;52.352;14.058;2024-01-27T00:51:45;4.90;32.50
326;DHT22;150;52.352;14.058;2024-01-27T00:54:12;4.90;32.50
326;DHT22;150;52.352;14.058;2024-01-27T00:56:38;4.90;33.00
326;DHT22;150;52.352;14.058;2024-01-27T00:59:06;5.00;32.70
326;DHT22;150;52.352;14.058;2024-01-27T01:01:33;5.00;32.20
326;DHT22;150;52.352;14.058;2024-01-27T01:03:59;4.90;32.60
326;DHT22;150;52.352;14.058;2024-01-27T01:06:26;4.90;32.50
326;DHT22;150;52.352;14.058;2024-01-27T01:08:52;4.90;32.60
326;DHT22;150;52.352;14.058;2024-01-27T01:11:19;4.90;32.30
326;DHT22;150;52.352;14.058;2024-01-27T01:13:45;4.80;31.70
326;DHT22;150;52.352;14.058;2024-01-27T01:16:13;4.70;32.00
326;DHT22;150;52.352;14.058;2024-01-27T01:18:40;4.80;32.10
326;DHT22;150;52.352;14.058;2024-01-27T01:21:06;4.70;31.60
326;DHT22;150;52.352;14.058;2024-01-27T01:23:33;4.70;32.10
326;DHT22;150;52.352;14.058;2024-01-27T01:26:00;4.60;32.30
326;DHT22;150;52.352;14.058;2024-01-27T01:28:26;4.60;33.10
326;DHT22;150;52.352;14.058;2024-01-27T01:30:53;4.60;32.30
326;DHT22;150;52.352;14.058;2024-01-27T01:33:21;4.60;32.00
326;DHT22;150;52.352;14.058;2024-01-27T01:35:48;4.60;32.30
326;DHT22;150;52.352;14.058;2024-01-27T01:38:14;4.60;32.00
326;DHT22;150;52.352;14.058;2024-01-27T01:40:41;4.60;31.80
326;DHT22;150;52.352;14.058;2024-01-27T01:43:09;4.70;31.30
326;DHT22;150;52.352;14.058;2024-01-27T01:45:37;4.60;31.30
326;DHT22;150;52.352;14.058;2024-01-27T01:48:04;4.60;30.60
326;DHT22;150;52.352;14.058;2024-01-27T01:50:32;4.60;31.40
326;DHT22;150;52.352;14.058;2024-01-27T01:52:59;4.60;30.60
326;DHT22;150;52.352;14.058;2024-01-27T01:55:27;4.70;30.80
326;DHT22;150;52.352;14.058;2024-01-27T01:57:53;4.70;30.60
326;DHT22;150;52.352;14.058;2024-01-27T02:00:20;4.70;30.60
326;DHT22;150;52.352;14.058;2024-01-27T02:02:48;4.70;30.60
326;DHT22;150;52.352;14.058;2024-01-27T02:05:14;4.80;30.70
326;DHT22;150;52.352;14.058;2024-01-27T02:07:42;4.80;30.70
326;DHT22;150;52.352;14.058;2024-01-27T02:10:13;4.80;30.20
326;DHT22;150;52.352;14.058;2024-01-27T02:12:41;4.80;30.70
326;DHT22;150;52.352;14.058;2024-01-27T02:15:10;4.70;30.60
326;DHT22;150;52.352;14.058;2024-01-27T02:17:37;4.80;30.60
326;DHT22;150;52.352;14.058;2024-01-27T02:20:04;4.80;30.70
326;DHT22;150;52.352;14.058;2024-01-27T02:22:32;4.80;30.80
326;DHT22;150;52.352;14.058;2024-01-27T02:24:59;4.80;30.20
326;DHT22;150;52.352;14.058;2024-01-27T02:27:26;4.70;30.70
326;DHT22;150;52.352;14.058;2024-01-27T02:29:53;4.80;30.50
326;DHT22;150;52.352;14.058;2024-01-27T02:32:19;4.80;30.70
326;DHT22;150;52.352;14.058;2024-01-27T02:34:46;4.80;30.70
326;DHT22;150;52.352;14.058;2024-01-27T02:37:12;4.80;30.80
326;DHT22;150;52.352;14.058;2024-01-27T02:39:39;4.90;30.90
326;DHT22;150;52.352;14.058;2024-01-27T02:42:07;4.80;30.70
326;DHT22;150;52.352;14.058;2024-01-27T02:44:34;4.90;30.80
326;DHT22;150;52.352;14.058;2024-01-27T02:47:00;4.90;30.80
326;DHT22;150;52.352;14.058;2024-01-27T02:49:27;4.90;30.80
326;DHT22;150;52.352;14.058;2024-01-27T02:51:54;4.90;31.10
326;DHT22;150;52.352;14.058;2024-01-27T02:54:20;4.90;31.10
326;DHT22;150;52.352;14.058;2024-01-27T02:56:47;4.80;31.10
326;DHT22;150;52.352;14.058;2024-01-27T02:59:15;4.80;31.50
326;DHT22;150;52.352;14.058;2024-01-27T03:01:41;4.70;31.50
326;DHT22;150;52.352;14.058;2024-01-27T03:04:08;4.70;31.80
326;DHT22;150;52.352;14.058;2024-01-27T03:06:34;4.70;31.90
326;DHT22;150;52.352;14.058;2024-01-27T03:09:01;4.60;31.80
326;DHT22;150;52.352;14.058;2024-01-27T03:11:27;4.60;32.00
326;DHT22;150;52.352;14.058;2024-01-27T03:13:54;4.60;32.10
326;DHT22;150;52.352;14.058;2024-01-27T03:16:22;4.60;31.90
326;DHT22;150;52.352;14.058;2024-01-27T03:18:48;4.60;31.80
326;DHT22;150;52.352;14.058;2024-01-27T03:21:15;4.60;32.00
326;DHT22;150;52.352;14.058;2024-01-27T03:23:41;4.60;32.00
326;DHT22;150;52.352;14.058;2024-01-27T03:26:08;4.60;32.00
326;DHT22;150;52.352;14.058;2024-01-27T03:28:35;4.60;31.80
326;DHT22;150;52.352;14.058;2024-01-27T03:31:02;4.70;32.00
326;DHT22;150;52.352;14.058;2024-01-27T03:33:30;4.60;31.90
326;DHT22;150;52.352;14.058;2024-01-27T03:35:56;4.70;31.90
326;DHT22;150;52.352;14.058;2024-01-27T03:38:23;4.70;32.00
326;DHT22;150;52.352;14.058;2024-01-27T03:40:50;4.70;31.60
326;DHT22;150;52.352;14.058;2024-01-27T03:43:16;4.80;31.60
326;DHT22;150;52.352;14.058;2024-01-27T03:45:43;4.80;31.10
326;DHT22;150;52.352;14.058;2024-01-27T03:48:10;4.80;30.70
326;DHT22;150;52.352;14.058;2024-01-27T03:50:38;4.80;31.20
326;DHT22;150;52.352;14.058;2024-01-27T03:53:05;4.80;31.40
326;DHT22;150;52.352;14.058;2024-01-27T03:55:31;4.80;31.10
326;DHT22;150;52.352;14.058;2024-01-27T03:57:59;4.80;30.70
326;DHT22;150;52.352;14.058;2024-01-27T04:00:26;4.90;30.90
326;DHT22;150;52.352;14.058;2024-01-27T04:02:55;4.80;31.40
326;DHT22;150;52.352;14.058;2024-01-27T04:05:21;4.90;31.30
326;DHT22;150;52.352;14.058;2024-01-27T04:07:49;4.90;31.40
326;DHT22;150;52.352;14.058;2024-01-27T04:10:16;4.80;30.80
326;DHT22;150;52.352;14.058;2024-01-27T04:12:43;4.70;31.20
326;DHT22;150;52.352;14.058;2024-01-27T04:15:10;4.80;31.60
326;DHT22;150;52.352;14.058;2024-01-27T04:17:37;4.80;31.70
326;DHT22;150;52.352;14.058;2024-01-27T04:20:04;4.80;32.10
326;DHT22;150;52.352;14.058;2024-01-27T04:22:32;4.90;32.00
326;DHT22;150;52.352;14.058;2024-01-27T04:25:00;5.00;32.00
326;DHT22;150;52.352;14.058;2024-01-27T04:27:27;5.00;31.70
326;DHT22;150;52.352;14.058;2024-01-27T04:29:54;5.00;31.70
326;DHT22;150;52.352;14.058;2024-01-27T04:32:22;5.10;31.50
326;DHT22;150;52.352;14.058;2024-01-27T04:34:49;5.00;31.40
326;DHT22;150;52.352;14.058;2024-01-27T04:37:15;5.00;31.70
326;DHT22;150;52.352;14.058;2024-01-27T04:39:42;5.00;31.60
326;DHT22;150;52.352;14.058;2024-01-27T04:42:10;5.10;31.80
326;DHT22;150;52.352;14.058;2024-01-27T04:44:39;5.10;31.50
326;DHT22;150;52.352;14.058;2024-01-27T04:47:06;4.90;31.90
326;DHT22;150;52.352;14.058;2024-01-27T04:49:33;4.90;32.70
326;DHT22;150;52.352;14.058;2024-01-27T04:52:00;4.90;32.60
326;DHT22;150;52.352;14.058;2024-01-27T04:54:27;4.90;32.80
326;DHT22;150;52.352;14.058;2024-01-27T04:56:53;4.90;32.80
326;DHT22;150;52.352;14.058;2024-01-27T04:59:21;4.90;32.40
326;DHT22;150;52.352;14.058;2024-01-27T05:01:48;4.90;32.90
326;DHT22;150;52.352;14.058;2024-01-27T05:04:15;4.90;32.80
326;DHT22;150;52.352;14.058;2024-01-27T05:06:43;4.90;32.90
326;DHT22;150;52.352;14.058;2024-01-27T05:09:10;5.00;33.20
326;DHT22;150;52.352;14.058;2024-01-27T05:11:37;5.00;32.80
326;DHT22;150;52.352;14.058;2024-01-27T05:14:04;5.00;32.30
326;DHT22;150;52.352;14.058;2024-01-27T05:16:32;5.10;32.60
326;DHT22;150;52.352;14.058;2024-01-27T05:18:59;5.10;31.90
326;DHT22;150;52.352;14.058;2024-01-27T05:21:26;5.10;32.50
326;DHT22;150;52.352;14.058;2024-01-27T05:23:52;5.00;32.20
326;DHT22;150;52.352;14.058;2024-01-27T05:26:20;4.90;32.50
326;DHT22;150;52.352;14.058;2024-01-27T05:28:46;5.00;32.80
326;DHT22;150;52.352;14.058;2024-01-27T05:31:13;5.00;32.50
326;DHT22;150;52.352;14.058;2024-01-27T05:33:42;5.00;32.60
326;DHT22;150;52.352;14.058;2024-01-27T05:36:09;5.10;32.30
326;DHT22;150;52.352;14.058;2024-01-27T05:38:35;5.00;32.50
326;DHT22;150;52.352;14.058;2024-01-27T05:41:02;4.90;32.20
326;DHT22;150;52.352;14.058;2024-01-27T05:43:29;4.90;33.00
326;DHT22;150;52.352;14.058;2024-01-27T05:45:55;4.90;33.30
326;DHT22;150;52.352;14.058;2024-01-27T05:48:22;5.00;33.10
326;DHT22;150;52.352;14.058;2024-01-27T05:50:56;5.00;33.20
326;DHT22;150;52.352;14.058;2024-01-27T05:53:23;5.00;32.90
326;DHT22;150;52.352;14.058;2024-01-27T05:55:49;5.00;33.00
326;DHT22;150;52.352;14.058;2024-01-27T05:58:16;5.00;32.80
326;DHT22;150;52.352;14.058;2024-01-27T06:00:43;4.90;33.00
326;DHT22;150;52.352;14.058;2024-01-27T06:03:10;4.80;33.10
326;DHT22;150;52.352;14.058;2024-01-27T06:05:36;4.90;33.20
326;DHT22;150;52.352;14.058;2024-01-27T06:08:06;4.90;32.90
326;DHT22;150;52.352;14.058;2024-01-27T06:10:33;5.00;33.10
326;DHT22;150;52.352;14.058;2024-01-27T06:13:02;5.00;33.30
326;DHT22;150;52.352;14.058;2024-01-27T06:15:28;5.00;32.70
326;DHT22;150;52.352;14.058;2024-01-27T06:17:55;5.00;32.40
326;DHT22;150;52.352;14.058;2024-01-27T06:20:21;4.90;33.10
326;DHT22;150;52.352;14.058;2024-01-27T06:22:48;4.90;33.40
326;DHT22;150;52.352;14.058;2024-01-27T06:25:16;4.90;32.80
326;DHT22;150;52.352;14.058;2024-01-27T06:27:43;5.00;32.80
326;DHT22;150;52.352;14.058;2024-01-27T06:30:10;4.90;32.80
326;DHT22;150;52.352;14.058;2024-01-27T06:32:37;4.90;33.00
326;DHT22;150;52.352;14.058;2024-01-27T06:35:03;4.90;33.00
326;DHT22;150;52.352;14.058;2024-01-27T06:37:30;4.90;32.90
326;DHT22;150;52.352;14.058;2024-01-27T06:39:57;4.90;33.00
326;DHT22;150;52.352;14.058;2024-01-27T06:42:25;4.90;33.20
326;DHT22;150;52.352;14.058;2024-01-27T06:44:51;4.80;33.00
326;DHT22;150;52.352;14.058;2024-01-27T06:47:18;4.80;33.20
326;DHT22;150;52.352;14.058;2024-01-27T06:49:44;4.90;33.50
326;DHT22;150;52.352;14.058;2024-01-27T06:52:11;4.90;33.30
326;DHT22;150;52.352;14.058;2024-01-27T06:54:38;5.00;33.10
326;DHT22;150;52.352;14.058;2024-01-27T06:57:17;4.90;33.30
326;DHT22;150;52.352;14.058;2024-01-27T06:59:45;4.90;33.70
326;DHT22;150;52.352;14.058;2024-01-27T07:02:13;5.00;33.50
326;DHT22;150;52.352;14.058;2024-01-27T07:04:40;5.00;33.10
326;DHT22;150;52.352;14.058;2024-01-27T07:07:06;5.00;33.10
326;DHT22;150;52.352;14.058;2024-01-27T07:09:33;4.90;33.50
326;DHT22;150;52.352;14.058;2024-01-27T07:11:59;5.00;33.40
326;DHT22;150;52.352;14.058;2024-01-27T07:14:26;4.90;33.70
326;DHT22;150;52.352;14.058;2024-01-27T07:16:54;4.90;33.70
326;DHT22;150;52.352;14.058;2024-01-27T07:19:20;5.00;33.70
326;DHT22;150;52.352;14.058;2024-01-27T07:21:47;5.00;33.50
326;DHT22;150;52.352;14.058;2024-01-27T07:24:13;4.90;33.60
326;DHT22;150;52.352;14.058;2024-01-27T07:26:40;4.90;33.50
326;DHT22;150;52.352;14.058;2024-01-27T07:29:07;5.00;33.80
326;DHT22;150;52.352;14.058;2024-01-27T07:31:34;5.00;33.20
326;DHT22;150;52.352;14.058;2024-01-27T07:34:02;5.00;33.40
326;DHT22;150;52.352;14.058;2024-01-27T07:36:31;5.00;33.40
326;DHT22;150;52.352;14.058;2024-01-27T07:38:58;5.00;33.20
326;DHT22;150;52.352;14.058;2024-01-27T07:41:25;5.00;33.60
326;DHT22;150;52.352;14.058;2024-01-27T07:43:53;5.10;33.40
326;DHT22;150;52.352;14.058;2024-01-27T07:46:20;5.10;33.30
326;DHT22;150;52.352;14.058;2024-01-27T07:48:48;5.20;33.40
326;DHT22;150;52.352;14.058;2024-01-27T07:51:16;5.20;33.50
326;DHT22;150;52.352;14.058;2024-01-27T07:53:42;5.20;33.50
326;DHT22;150;52.352;14.058;2024-01-27T07:56:09;5.20;33.50
326;DHT22;150;52.352;14.058;2024-01-27T07:58:35;5.20;33.50
326;DHT22;150;52.352;14.058;2024-01-27T08:01:02;5.20;33.70
326;DHT22;150;52.352;14.058;2024-01-27T08:03:30;5.30;33.80
326;DHT22;150;52.352;14.058;2024-01-27T08:05:56;5.30;33.60
326;DHT22;150;52.352;14.058;2024-01-27T08:08:26;5.40;33.40
326;DHT22;150;52.352;14.058;2024-01-27T08:10:53;5.40;33.60
326;DHT22;150;52.352;14.058;2024-01-27T08:13:19;5.40;33.50
326;DHT22;150;52.352;14.058;2024-01-27T08:15:46;5.50;33.70
326;DHT22;150;52.352;14.058;2024-01-27T08:18:12;5.60;32.90
326;DHT22;150;52.352;14.058;2024-01-27T08:20:39;5.60;33.10
326;DHT22;150;52.352;14.058;2024-01-27T08:23:06;5.70;32.60
326;DHT22;150;52.352;14.058;2024-01-27T08:25:34;5.80;32.40
326;DHT22;150;52.352;14.058;2024-01-27T08:28:01;5.80;32.20
326;DHT22;150;52.352;14.058;2024-01-27T08:30:28;5.90;32.40
326;DHT22;150;52.352;14.058;2024-01-27T08:32:55;5.90;32.40
326;DHT22;150;52.352;14.058;2024-01-27T08:35:22;6.00;31.80
326;DHT22;150;52.352;14.058;2024-01-27T08:37:49;6.00;31.70
326;DHT22;150;52.352;14.058;2024-01-27T08:40:15;6.00;31.90
326;DHT22;150;52.352;14.058;2024-01-27T08:42:44;5.90;31.70
326;DHT22;150;52.352;14.058;2024-01-27T08:45:10;6.00;31.70
326;DHT22;150;52.352;14.058;2024-01-27T08:47:37;6.00;31.80
326;DHT22;150;52.352;14.058;2024-01-27T08:50:04;6.00;31.70
326;DHT22;150;52.352;14.058;2024-01-27T08:52:31;6.10;31.80
326;DHT22;150;52.352;14.058;2024-01-27T08:54:58;6.10;31.80
326;DHT22;150;52.352;14.058;2024-01-27T08:57:24;6.20;31.90
326;DHT22;150;52.352;14.058;2024-01-27T08:59:52;6.30;32.00
326;DHT22;150;52.352;14.058;2024-01-27T09:02:19;6.40;32.00
326;DHT22;150;52.352;14.058;2024-01-27T09:04:46;6.40;31.40
326;DHT22;150;52.352;14.058;2024-01-27T09:07:12;6.40;31.10
326;DHT22;150;52.352;14.058;2024-01-27T09:09:39;6.40;31.90
326;DHT22;150;52.352;14.058;2024-01-27T09:12:06;6.50;32.00
326;DHT22;150;52.352;14.058;2024-01-27T09:14:32;6.50;31.20
326;DHT22;150;52.352;14.058;2024-01-27T09:17:01;6.40;31.10
326;DHT22;150;52.352;14.058;2024-01-27T09:19:28;6.50;31.40
326;DHT22;150;52.352;14.058;2024-01-27T09:21:55;6.50;30.40
326;DHT22;150;52.352;14.058;2024-01-27T09:24:21;6.60;30.80
326;DHT22;150;52.352;14.058;2024-01-27T09:26:48;6.70;30.90
326;DHT22;150;52.352;14.058;2024-01-27T09:29:14;6.70;30.30
326;DHT22;150;52.352;14.058;2024-01-27T09:31:41;6.90;30.40
326;DHT22;150;52.352;14.058;2024-01-27T09:34:09;6.90;30.00
326;DHT22;150;52.352;14.058;2024-01-27T09:36:35;6.80;29.80
326;DHT22;150;52.352;14.058;2024-01-27T09:39:02;6.70;29.90
326;DHT22;150;52.352;14.058;2024-01-27T09:41:30;6.60;29.90
326;DHT22;150;52.352;14.058;2024-01-27T09:44:00;6.60;30.10
326;DHT22;150;52.352;14.058;2024-01-27T09:46:28;6.50;30.50
326;DHT22;150;52.352;14.058;2024-01-27T09:48:56;6.50;30.90
326;DHT22;150;52.352;14.058;2024-01-27T09:51:24;6.60;30.60
326;DHT22;150;52.352;14.058;2024-01-27T09:53:51;6.60;30.60
326;DHT22;150;52.352;14.058;2024-01-27T09:56:18;6.80;30.40
326;DHT22;150;52.352;14.058;2024-01-27T09:58:46;7.00;30.00
326;DHT22;150;52.352;14.058;2024-01-27T10:01:16;7.10;29.50
326;DHT22;150;52.352;14.058;2024-01-27T10:03:45;7.10;29.40
326;DHT22;150;52.352;14.058;2024-01-27T10:06:12;7.10;28.80
326;DHT22;150;52.352;14.058;2024-01-27T10:08:41;7.10;28.90
326;DHT22;150;52.352;14.058;2024-01-27T10:11:09;7.10;29.20
326;DHT22;150;52.352;14.058;2024-01-27T10:13:36;7.20;29.10
326;DHT22;150;52.352;14.058;2024-01-27T10:16:04;7.30;28.70
326;DHT22;150;52.352;14.058;2024-01-27T10:18:31;7.30;28.80
326;DHT22;150;52.352;14.058;2024-01-27T10:20:58;7.30;28.60
326;DHT22;150;52.352;14.058;2024-01-27T10:23:25;7.40;28.80
326;DHT22;150;52.352;14.058;2024-01-27T10:25:53;7.30;28.80
326;DHT22;150;52.352;14.058;2024-01-27T10:28:20;7.40;28.30
326;DHT22;150;52.352;14.058;2024-01-27T10:30:48;7.40;28.60
326;DHT22;150;52.352;14.058;2024-01-27T10:33:14;7.50;28.60
326;DHT22;150;52.352;14.058;2024-01-27T10:35:42;7.40;28.10
326;DHT22;150;52.352;14.058;2024-01-27T10:38:08;7.50;28.60
326;DHT22;150;52.352;14.058;2024-01-27T10:40:35;7.60;27.90
326;DHT22;150;52.352;14.058;2024-01-27T10:43:05;7.60;28.30
326;DHT22;150;52.352;14.058;2024-01-27T10:45:35;7.60;27.90
326;DHT22;150;52.352;14.058;2024-01-27T10:48:03;7.70;27.90
326;DHT22;150;52.352;14.058;2024-01-27T10:50:34;7.60;27.90
326;DHT22;150;52.352;14.058;2024-01-27T10:53:03;7.50;27.40
326;DHT22;150;52.352;14.058;2024-01-27T10:55:31;7.40;28.10
326;DHT22;150;52.352;14.058;2024-01-27T10:57:59;7.50;28.20
326;DHT22;150;52.352;14.058;2024-01-27T11:00:29;7.40;28.10
326;DHT22;150;52.352;14.058;2024-01-27T11:02:58;7.50;28.20
326;DHT22;150;52.352;14.058;2024-01-27T11:05:27;7.50;28.20
326;DHT22;150;52.352;14.058;2024-01-27T11:07:54;7.60;27.50
326;DHT22;150;52.352;14.058;2024-01-27T11:10:22;7.60;27.60
326;DHT22;150;52.352;14.058;2024-01-27T11:12:49;7.80;28.00
326;DHT22;150;52.352;14.058;2024-01-27T11:15:16;7.90;27.10
326;DHT22;150;52.352;14.058;2024-01-27T11:17:44;7.90;26.90
326;DHT22;150;52.352;14.058;2024-01-27T11:20:12;7.70;27.40
326;DHT22;150;52.352;14.058;2024-01-27T11:22:41;7.80;27.60
326;DHT22;150;52.352;14.058;2024-01-27T11:25:14;7.80;27.00
326;DHT22;150;52.352;14.058;2024-01-27T11:27:42;7.80;27.20
326;DHT22;150;52.352;14.058;2024-01-27T11:30:25;7.80;26.90
326;DHT22;150;52.352;14.058;2024-01-27T11:32:54;8.00;26.60
326;DHT22;150;52.352;14.058;2024-01-27T11:35:21;8.00;25.80
326;DHT22;150;52.352;14.058;2024-01-27T11:37:47;8.00;25.70
326;DHT22;150;52.352;14.058;2024-01-27T11:40:14;8.00;26.00
326;DHT22;150;52.352;14.058;2024-01-27T11:42:41;8.00;25.60
326;DHT22;150;52.352;14.058;2024-01-27T11:45:08;7.90;26.10
326;DHT22;150;52.352;14.058;2024-01-27T11:47:34;7.80;26.30
326;DHT22;150;52.352;14.058;2024-01-27T11:50:02;7.90;26.80
326;DHT22;150;52.352;14.058;2024-01-27T11:52:29;8.00;26.10
326;DHT22;150;52.352;14.058;2024-01-27T11:54:56;8.00;25.40
326;DHT22;150;52.352;14.058;2024-01-27T11:57:23;8.00;25.60
326;DHT22;150;52.352;14.058;2024-01-27T11:59:50;8.10;25.50
326;DHT22;150;52.352;14.058;2024-01-27T12:02:17;7.90;26.10
326;DHT22;150;52.352;14.058;2024-01-27T12:04:44;7.90;26.60
326;DHT22;150;52.352;14.058;2024-01-27T12:07:12;7.90;26.50
326;DHT22;150;52.352;14.058;2024-01-27T12:09:38;7.70;26.60
326;DHT22;150;52.352;14.058;2024-01-27T12:12:06;7.60;26.40
326;DHT22;150;52.352;14.058;2024-01-27T12:14:39;7.60;26.60
326;DHT22;150;52.352;14.058;2024-01-27T12:17:08;7.70;26.80
326;DHT22;150;52.352;14.058;2024-01-27T12:19:35;7.70;27.00
326;DHT22;150;52.352;14.058;2024-01-27T12:22:02;7.70;27.00
326;DHT22;150;52.352;14.058;2024-01-27T12:24:30;7.80;27.20
326;DHT22;150;52.352;14.058;2024-01-27T12:26:57;8.00;26.20
326;DHT22;150;52.352;14.058;2024-01-27T12:29:24;7.90;26.40
326;DHT22;150;52.352;14.058;2024-01-27T12:31:51;7.80;26.60
326;DHT22;150;52.352;14.058;2024-01-27T12:34:19;7.80;26.80
326;DHT22;150;52.352;14.058;2024-01-27T12:36:45;7.90;27.40
326;DHT22;150;52.352;14.058;2024-01-27T12:39:12;8.00;26.00
326;DHT22;150;52.352;14.058;2024-01-27T12:41:40;8.10;25.90
326;DHT22;150;52.352;14.058;2024-01-27T12:44:07;8.10;26.10
326;DHT22;150;52.352;14.058;2024-01-27T12:46:34;8.00;25.60
326;DHT22;150;52.352;14.058;2024-01-27T12:49:00;8.10;25.70
326;DHT22;150;52.352;14.058;2024-01-27T12:51:28;8.10;25.60
326;DHT22;150;52.352;14.058;2024-01-27T12:53:55;8.20;25.90
326;DHT22;150;52.352;14.058;2024-01-27T12:56:21;8.30;25.10
326;DHT22;150;52.352;14.058;2024-01-27T12:58:50;8.30;24.60
326;DHT22;150;52.352;14.058;2024-01-27T13:01:15;8.20;25.10
326;DHT22;150;52.352;14.058;2024-01-27T13:03:42;8.20;25.60
326;DHT22;150;52.352;14.058;2024-01-27T13:06:09;8.20;25.50
326;DHT22;150;52.352;14.058;2024-01-27T13:08:36;8.20;25.70
326;DHT22;150;52.352;14.058;2024-01-27T13:11:03;8.20;25.70
326;DHT22;150;52.352;14.058;2024-01-27T13:13:29;8.10;25.80
326;DHT22;150;52.352;14.058;2024-01-27T13:15:57;8.00;25.70
326;DHT22;150;52.352;14.058;2024-01-27T13:18:24;8.00;26.60
326;DHT22;150;52.352;14.058;2024-01-27T13:20:50;7.90;27.10
326;DHT22;150;52.352;14.058;2024-01-27T13:23:17;7.80;27.80
326;DHT22;150;52.352;14.058;2024-01-27T13:25:43;7.80;27.60
326;DHT22;150;52.352;14.058;2024-01-27T13:28:10;7.70;27.50
326;DHT22;150;52.352;14.058;2024-01-27T13:30:38;7.70;28.00
326;DHT22;150;52.352;14.058;2024-01-27T13:33:06;7.70;28.30
326;DHT22;150;52.352;14.058;2024-01-27T13:35:32;7.80;27.90
326;DHT22;150;52.352;14.058;2024-01-27T13:37:59;7.90;27.90
326;DHT22;150;52.352;14.058;2024-01-27T13:40:25;7.80;27.80
326;DHT22;150;52.352;14.058;2024-01-27T13:42:52;7.70;28.00
326;DHT22;150;52.352;14.058;2024-01-27T13:45:19;7.80;28.20
326;DHT22;150;52.352;14.058;2024-01-27T13:47:46;7.80;27.50
326;DHT22;150;52.352;14.058;2024-01-27T13:50:14;7.80;27.30
326;DHT22;150;52.352;14.058;2024-01-27T13:52:40;7.70;27.30
326;DHT22;150;52.352;14.058;2024-01-27T13:55:10;7.70;27.50
326;DHT22;150;52.352;14.058;2024-01-27T13:57:38;7.60;27.50
326;DHT22;150;52.352;14.058;2024-01-27T14:00:06;7.40;27.50
326;DHT22;150;52.352;14.058;2024-01-27T14:02:35;7.50;27.80
326;DHT22;150;52.352;14.058;2024-01-27T14:05:02;7.50;27.60
326;DHT22;150;52.352;14.058;2024-01-27T14:07:31;7.40;27.90
326;DHT22;150;52.352;14.058;2024-01-27T14:09:57;7.30;28.10
326;DHT22;150;52.352;14.058;2024-01-27T14:12:25;7.20;28.00
326;DHT22;150;52.352;14.058;2024-01-27T14:14:51;7.10;28.50
326;DHT22;150;52.352;14.058;2024-01-27T14:17:18;7.20;28.10
326;DHT22;150;52.352;14.058;2024-01-27T14:19:46;7.10;27.90
326;DHT22;150;52.352;14.058;2024-01-27T14:22:12;7.10;28.20
326;DHT22;150;52.352;14.058;2024-01-27T14:24:40;7.00;27.90
326;DHT22;150;52.352;14.058;2024-01-27T14:27:08;7.00;28.30
326;DHT22;150;52.352;14.058;2024-01-27T14:29:35;7.10;27.90
326;DHT22;150;52.352;14.058;2024-01-27T14:32:02;7.00;27.90
326;DHT22;150;52.352;14.058;2024-01-27T14:34:29;6.90;28.10
326;DHT22;150;52.352;14.058;2024-01-27T14:36:55;7.00;28.30
326;DHT22;150;52.352;14.058;2024-01-27T14:39:23;7.00;27.90
326;DHT22;150;52.352;14.058;2024-01-27T14:41:51;7.20;28.20
326;DHT22;150;52.352;14.058;2024-01-27T14:44:17;7.20;27.50
326;DHT22;150;52.352;14.058;2024-01-27T14:46:44;7.10;27.20
326;DHT22;150;52.352;14.058;2024-01-27T14:49:10;7.00;27.40
326;DHT22;150;52.352;14.058;2024-01-27T14:51:37;6.90;27.80
326;DHT22;150;52.352;14.058;2024-01-27T14:54:04;6.80;27.80
326;DHT22;150;52.352;14.058;2024-01-27T14:56:31;6.70;28.20
326;DHT22;150;52.352;14.058;2024-01-27T14:58:59;6.80;28.40
326;DHT22;150;52.352;14.058;2024-01-27T15:01:25;6.80;28.30
326;DHT22;150;52.352;14.058;2024-01-27T15:03:52;6.90;28.50
326;DHT22;150;52.352;14.058;2024-01-27T15:06:19;6.80;28.30
326;DHT22;150;52.352;14.058;2024-01-27T15:08:45;6.80;28.40
326;DHT22;150;52.352;14.058;2024-01-27T15:11:12;6.80;28.50
326;DHT22;150;52.352;14.058;2024-01-27T15:13:38;6.70;28.60
326;DHT22;150;52.352;14.058;2024-01-27T15:16:07;6.70;28.80
326;DHT22;150;52.352;14.058;2024-01-27T15:18:33;6.70;29.00
326;DHT22;150;52.352;14.058;2024-01-27T15:21:02;6.60;29.20
326;DHT22;150;52.352;14.058;2024-01-27T15:23:29;6.50;29.50
326;DHT22;150;52.352;14.058;2024-01-27T15:25:56;6.50;29.50
326;DHT22;150;52.352;14.058;2024-01-27T15:28:23;6.50;29.80
326;DHT22;150;52.352;14.058;2024-01-27T15:30:49;6.50;29.90
326;DHT22;150;52.352;14.058;2024-01-27T15:33:17;6.40;29.90
326;DHT22;150;52.352;14.058;2024-01-27T15:35:44;6.40;30.00
326;DHT22;150;52.352;14.058;2024-01-27T15:38:10;6.40;30.00
326;DHT22;150;52.352;14.058;2024-01-27T15:40:37;6.40;30.00
326;DHT22;150;52.352;14.058;2024-01-27T15:43:04;6.40;30.00
326;DHT22;150;52.352;14.058;2024-01-27T15:45:31;6.30;29.90
326;DHT22;150;52.352;14.058;2024-01-27T15:47:58;6.30;29.90
326;DHT22;150;52.352;14.058;2024-01-27T15:50:26;6.30;30.00
326;DHT22;150;52.352;14.058;2024-01-27T15:52:53;6.30;30.00
326;DHT22;150;52.352;14.058;2024-01-27T15:55:20;6.30;30.00
326;DHT22;150;52.352;14.058;2024-01-27T15:57:46;6.30;30.10
326;DHT22;150;52.352;14.058;2024-01-27T16:00:14;6.20;30.20
326;DHT22;150;52.352;14.058;2024-01-27T16:02:42;6.20;30.30
326;DHT22;150;52.352;14.058;2024-01-27T16:05:08;6.20;31.10
326;DHT22;150;52.352;14.058;2024-01-27T16:07:36;6.10;30.40
326;DHT22;150;52.352;14.058;2024-01-27T16:10:03;6.10;30.70
326;DHT22;150;52.352;14.058;2024-01-27T16:12:30;6.00;30.70
326;DHT22;150;52.352;14.058;2024-01-27T16:14:57;5.90;30.80
326;DHT22;150;52.352;14.058;2024-01-27T16:17:24;5.90;30.90
326;DHT22;150;52.352;14.058;2024-01-27T16:19:50;5.80;31.00
326;DHT22;150;52.352;14.058;2024-01-27T16:22:18;5.80;31.30
326;DHT22;150;52.352;14.058;2024-01-27T16:24:49;5.70;31.50
326;DHT22;150;52.352;14.058;2024-01-27T16:27:17;5.70;31.50
326;DHT22;150;52.352;14.058;2024-01-27T16:29:46;5.60;31.40
326;DHT22;150;52.352;14.058;2024-01-27T16:32:12;5.50;31.30